OOKB METAR and TAF | Updated Today

OOKB METAR

Khasab Air Base

Observation time: 1:54 hr. ago

OOKB 080350Z AUTO 20007KT CAVOK ////// 21/11 Q1020 NOSIG

Need help? Read our tutorial on how to read METARs or read the parsed version below.

Khasab Air Base (OOKB) METAR

  • Weather conditions on Wed, 08 Dec 2021 03:50:00 +0000 (1:54 hr. ago):
  • Present conditions: Dry
  • Clouds: Clear skies
  • Visibility: Greater than 10 km
  • Wind: 200 degrees at 7 knots
  • Temperature: 21 celsius
  • Dew point: 11 celsius
  • Pressure: 1020 millibars
  • Remarks: None


Useful to know...